Aérodrome :
LOGIN :

S'inscrire | Disclaimer

   EN    FR    IT 

 










Légende :    VFR   VFR Marginal   IFR   IFR Intensif   IFR Très Intensif
Visi : 
Plafond : 
>= 8 km
>= 3000ft
5 à 8 km
1000 à 3000 ft
1500m à 5 km
500 à 1000 ft
800 à 1500m
200 à 500 ft
< 800m
< 200 ft
Symboles :   Orages  Brouillard  Fortes neiges  Fortes précipitations  Vent > 20 kt
SIGMETs :   Divers  Orages  Givrage  Turbulence  Onde Orograph.  Cendres Volcan.







- Altitude de l'aérodrome : 1017 ft
- Voir les cartes d'approche


LFSL - Brive Souillac

DERNIER METAR :
  • 122130Z AUTO 30008KT 9999 -RA SCT006/// BKN022/// OVC031/// ///TCU 13/12 Q1020

METARs EXPIRÉS :
  • 122100Z AUTO 29005KT 250V310 9999 BKN005/// BKN027/// OVC032/// ///CB 14/13 Q1020 TEMPO 4500 RA BKN012
  • 122030Z AUTO 31004KT 9999 OVC033 14/13 Q1019 TEMPO 4500 RA BKN012
  • 122000Z AUTO 32004KT 9999 FEW027 BKN035 OVC058 14/13 Q1019 TEMPO 4500 RA BKN012
  • 121930Z AUTO 30004KT 9999 OVC036/// ///TCU 14/13 Q1019 TEMPO 4500 RA BKN012
  • 121900Z AUTO VRB02KT 9999 FEW031/// OVC038/// ///TCU 14/12 Q1019 TEMPO 4500 RA BKN012

TAF TAF LFSL
Valide du 12 à 18h jusqu'au 13 à 03h UTC


121700Z 1218/1303 27006KT 9999 BKN030
TEMPO 1218/1303 4500 RA BKN012
Pas de NOTAMs connus pour ce terrain.



MET'MAP, la Météo Aéronautique d'un coup d'oeil ! - Copyright ORBIFLY Décembre 2007 - Disclaimer

ORBIFLY MET'MAP TEAM :

Programmation & Développement : Alexandra Zaïnal
Conception & Développement : Baudouin d'Aumeries
Co-Programmation & Développement : Marc-Olivier Méhu
Soutien technique & logistique : Manuel Goepfert

Contact : metmap@orbifly.com




SOURCES & CREDITS :

   NOAA